sensor_id;sensor_type;location;lat;lon;timestamp;temperature;humidity
18611;DHT22;9435;52.122;5.502;2023-01-31T00:01:48;2.90;99.90
18611;DHT22;9435;52.122;5.502;2023-01-31T00:04:16;2.90;99.90
18611;DHT22;9435;52.122;5.502;2023-01-31T00:06:44;2.90;99.90
18611;DHT22;9435;52.122;5.502;2023-01-31T00:09:15;2.80;99.90
18611;DHT22;9435;52.122;5.502;2023-01-31T00:11:42;2.90;99.90
18611;DHT22;9435;52.122;5.502;2023-01-31T00:14:13;2.90;99.90
18611;DHT22;9435;52.122;5.502;2023-01-31T00:16:41;2.90;99.90
18611;DHT22;9435;52.122;5.502;2023-01-31T00:19:09;2.90;99.90
18611;DHT22;9435;52.122;5.502;2023-01-31T00:21:37;2.90;99.90
18611;DHT22;9435;52.122;5.502;2023-01-31T00:24:10;2.90;99.90
18611;DHT22;9435;52.122;5.502;2023-01-31T00:26:37;3.00;99.90
18611;DHT22;9435;52.122;5.502;2023-01-31T00:29:05;2.90;99.90
18611;DHT22;9435;52.122;5.502;2023-01-31T00:31:33;2.80;99.90
18611;DHT22;9435;52.122;5.502;2023-01-31T00:34:01;2.70;99.90
18611;DHT22;9435;52.122;5.502;2023-01-31T00:36:31;2.70;99.90
18611;DHT22;9435;52.122;5.502;2023-01-31T00:39:02;2.80;99.90
18611;DHT22;9435;52.122;5.502;2023-01-31T00:41:30;2.80;99.90
18611;DHT22;9435;52.122;5.502;2023-01-31T00:43:58;2.80;99.90
18611;DHT22;9435;52.122;5.502;2023-01-31T00:46:25;2.80;99.90
18611;DHT22;9435;52.122;5.502;2023-01-31T00:48:53;2.80;99.90
18611;DHT22;9435;52.122;5.502;2023-01-31T00:51:21;2.80;99.90
18611;DHT22;9435;52.122;5.502;2023-01-31T00:53:49;2.80;99.90
18611;DHT22;9435;52.122;5.502;2023-01-31T00:56:22;2.80;99.90
18611;DHT22;9435;52.122;5.502;2023-01-31T00:58:50;2.90;99.90
18611;DHT22;9435;52.122;5.502;2023-01-31T01:01:20;2.80;99.90
18611;DHT22;9435;52.122;5.502;2023-01-31T01:03:47;2.80;99.90
18611;DHT22;9435;52.122;5.502;2023-01-31T01:06:14;2.80;99.90
18611;DHT22;9435;52.122;5.502;2023-01-31T01:08:42;2.80;99.90
18611;DHT22;9435;52.122;5.502;2023-01-31T01:11:11;2.80;99.90
18611;DHT22;9435;52.122;5.502;2023-01-31T01:13:40;2.80;99.90
18611;DHT22;9435;52.122;5.502;2023-01-31T01:16:09;2.70;99.90
18611;DHT22;9435;52.122;5.502;2023-01-31T01:18:37;2.70;99.90
18611;DHT22;9435;52.122;5.502;2023-01-31T01:21:06;2.70;99.90
18611;DHT22;9435;52.122;5.502;2023-01-31T01:23:34;2.60;99.90
18611;DHT22;9435;52.122;5.502;2023-01-31T01:26:01;2.60;99.90
18611;DHT22;9435;52.122;5.502;2023-01-31T01:28:28;2.60;99.90
18611;DHT22;9435;52.122;5.502;2023-01-31T01:31:03;2.60;99.90
18611;DHT22;9435;52.122;5.502;2023-01-31T01:33:30;2.60;99.90
18611;DHT22;9435;52.122;5.502;2023-01-31T01:35:59;2.60;99.90
18611;DHT22;9435;52.122;5.502;2023-01-31T01:38:27;2.60;99.90
18611;DHT22;9435;52.122;5.502;2023-01-31T01:40:54;2.60;99.90
18611;DHT22;9435;52.122;5.502;2023-01-31T01:43:23;2.60;99.90
18611;DHT22;9435;52.122;5.502;2023-01-31T01:46:06;2.60;99.90
18611;DHT22;9435;52.122;5.502;2023-01-31T01:48:34;2.60;99.90
18611;DHT22;9435;52.122;5.502;2023-01-31T01:51:04;2.60;99.90
18611;DHT22;9435;52.122;5.502;2023-01-31T01:53:34;2.60;99.90
18611;DHT22;9435;52.122;5.502;2023-01-31T01:56:07;2.60;99.90
18611;DHT22;9435;52.122;5.502;2023-01-31T01:58:38;2.70;99.90
18611;DHT22;9435;52.122;5.502;2023-01-31T02:01:09;2.70;99.90
18611;DHT22;9435;52.122;5.502;2023-01-31T02:03:38;2.70;99.90
18611;DHT22;9435;52.122;5.502;2023-01-31T02:06:07;2.70;99.90
18611;DHT22;9435;52.122;5.502;2023-01-31T02:08:35;2.70;99.90
18611;DHT22;9435;52.122;5.502;2023-01-31T02:11:07;2.70;99.90
18611;DHT22;9435;52.122;5.502;2023-01-31T02:13:37;2.70;99.90
18611;DHT22;9435;52.122;5.502;2023-01-31T02:16:05;2.80;99.90
18611;DHT22;9435;52.122;5.502;2023-01-31T02:18:34;2.80;99.90
18611;DHT22;9435;52.122;5.502;2023-01-31T02:21:27;2.80;99.90
18611;DHT22;9435;52.122;5.502;2023-01-31T02:27:26;2.80;99.90
18611;DHT22;9435;52.122;5.502;2023-01-31T02:33:22;2.90;99.90
18611;DHT22;9435;52.122;5.502;2023-01-31T02:35:57;3.00;99.90
18611;DHT22;9435;52.122;5.502;2023-01-31T02:38:37;3.00;99.90
18611;DHT22;9435;52.122;5.502;2023-01-31T02:41:14;3.10;99.90
18611;DHT22;9435;52.122;5.502;2023-01-31T02:43:46;3.10;99.90
18611;DHT22;9435;52.122;5.502;2023-01-31T02:46:38;3.10;99.90
18611;DHT22;9435;52.122;5.502;2023-01-31T02:49:15;3.20;99.90
18611;DHT22;9435;52.122;5.502;2023-01-31T02:52:02;3.30;99.90
18611;DHT22;9435;52.122;5.502;2023-01-31T02:54:51;3.30;99.90
18611;DHT22;9435;52.122;5.502;2023-01-31T02:57:38;3.40;99.90
18611;DHT22;9435;52.122;5.502;2023-01-31T03:00:08;3.50;99.90
18611;DHT22;9435;52.122;5.502;2023-01-31T03:02:36;3.60;99.90
18611;DHT22;9435;52.122;5.502;2023-01-31T03:05:05;3.60;99.90
18611;DHT22;9435;52.122;5.502;2023-01-31T03:07:33;3.70;99.90
18611;DHT22;9435;52.122;5.502;2023-01-31T03:10:12;3.80;99.90
18611;DHT22;9435;52.122;5.502;2023-01-31T03:12:56;3.90;99.90
18611;DHT22;9435;52.122;5.502;2023-01-31T03:15:35;3.90;99.90
18611;DHT22;9435;52.122;5.502;2023-01-31T03:18:24;3.90;99.90
18611;DHT22;9435;52.122;5.502;2023-01-31T03:20:57;4.00;99.90
18611;DHT22;9435;52.122;5.502;2023-01-31T03:23:28;4.00;99.90
18611;DHT22;9435;52.122;5.502;2023-01-31T03:25:59;4.10;99.90
18611;DHT22;9435;52.122;5.502;2023-01-31T03:28:28;4.10;99.90
18611;DHT22;9435;52.122;5.502;2023-01-31T03:31:06;4.10;99.90
18611;DHT22;9435;52.122;5.502;2023-01-31T03:33:37;4.20;99.90
18611;DHT22;9435;52.122;5.502;2023-01-31T03:36:12;4.20;99.90
18611;DHT22;9435;52.122;5.502;2023-01-31T03:38:47;4.20;99.90
18611;DHT22;9435;52.122;5.502;2023-01-31T03:41:22;4.20;99.90
18611;DHT22;9435;52.122;5.502;2023-01-31T03:43:57;4.20;99.90
18611;DHT22;9435;52.122;5.502;2023-01-31T03:46:29;4.30;99.90
18611;DHT22;9435;52.122;5.502;2023-01-31T03:49:02;4.30;99.90
18611;DHT22;9435;52.122;5.502;2023-01-31T03:51:36;4.30;99.90
18611;DHT22;9435;52.122;5.502;2023-01-31T03:54:07;4.40;99.90
18611;DHT22;9435;52.122;5.502;2023-01-31T03:56:40;4.40;99.90
18611;DHT22;9435;52.122;5.502;2023-01-31T03:59:12;4.50;99.90
18611;DHT22;9435;52.122;5.502;2023-01-31T04:01:44;4.50;99.90
18611;DHT22;9435;52.122;5.502;2023-01-31T04:04:17;4.50;99.90
18611;DHT22;9435;52.122;5.502;2023-01-31T04:06:46;4.60;99.90
18611;DHT22;9435;52.122;5.502;2023-01-31T04:09:14;4.60;99.90
18611;DHT22;9435;52.122;5.502;2023-01-31T04:11:46;4.70;99.90
18611;DHT22;9435;52.122;5.502;2023-01-31T04:14:15;4.70;99.90
18611;DHT22;9435;52.122;5.502;2023-01-31T04:16:42;4.70;99.90
18611;DHT22;9435;52.122;5.502;2023-01-31T04:19:09;4.70;99.90
18611;DHT22;9435;52.122;5.502;2023-01-31T04:21:36;4.70;99.90
18611;DHT22;9435;52.122;5.502;2023-01-31T04:24:05;4.70;99.90
18611;DHT22;9435;52.122;5.502;2023-01-31T04:26:34;4.70;99.90
18611;DHT22;9435;52.122;5.502;2023-01-31T04:29:01;4.70;99.90
18611;DHT22;9435;52.122;5.502;2023-01-31T04:31:28;4.70;99.90
18611;DHT22;9435;52.122;5.502;2023-01-31T04:33:55;4.60;99.90
18611;DHT22;9435;52.122;5.502;2023-01-31T04:36:23;4.70;99.90
18611;DHT22;9435;52.122;5.502;2023-01-31T04:38:50;4.70;99.90
18611;DHT22;9435;52.122;5.502;2023-01-31T04:41:18;4.70;99.90
18611;DHT22;9435;52.122;5.502;2023-01-31T04:43:45;4.70;99.90
18611;DHT22;9435;52.122;5.502;2023-01-31T04:46:12;4.70;99.90
18611;DHT22;9435;52.122;5.502;2023-01-31T04:48:40;4.80;99.90
18611;DHT22;9435;52.122;5.502;2023-01-31T04:51:07;4.80;99.90
18611;DHT22;9435;52.122;5.502;2023-01-31T04:53:34;4.80;99.90
18611;DHT22;9435;52.122;5.502;2023-01-31T04:56:01;4.80;99.90
18611;DHT22;9435;52.122;5.502;2023-01-31T04:58:30;4.80;99.90
18611;DHT22;9435;52.122;5.502;2023-01-31T05:00:57;4.80;99.90
18611;DHT22;9435;52.122;5.502;2023-01-31T05:03:24;4.80;99.90
18611;DHT22;9435;52.122;5.502;2023-01-31T05:05:51;4.90;99.90
18611;DHT22;9435;52.122;5.502;2023-01-31T05:08:18;4.90;99.90
18611;DHT22;9435;52.122;5.502;2023-01-31T05:10:45;4.90;99.90
18611;DHT22;9435;52.122;5.502;2023-01-31T05:13:13;4.90;99.90
18611;DHT22;9435;52.122;5.502;2023-01-31T05:15:41;4.90;99.90
18611;DHT22;9435;52.122;5.502;2023-01-31T05:18:08;4.90;99.90
18611;DHT22;9435;52.122;5.502;2023-01-31T05:20:37;4.90;99.90
18611;DHT22;9435;52.122;5.502;2023-01-31T05:23:05;4.90;99.90
18611;DHT22;9435;52.122;5.502;2023-01-31T05:25:34;4.90;99.90
18611;DHT22;9435;52.122;5.502;2023-01-31T05:28:01;4.90;99.90
18611;DHT22;9435;52.122;5.502;2023-01-31T05:30:29;4.90;99.90
18611;DHT22;9435;52.122;5.502;2023-01-31T05:32:57;4.90;99.90
18611;DHT22;9435;52.122;5.502;2023-01-31T05:35:24;5.00;99.90
18611;DHT22;9435;52.122;5.502;2023-01-31T05:37:52;5.00;99.90
18611;DHT22;9435;52.122;5.502;2023-01-31T05:40:19;5.00;99.90
18611;DHT22;9435;52.122;5.502;2023-01-31T05:42:52;5.00;99.90
18611;DHT22;9435;52.122;5.502;2023-01-31T05:45:20;5.00;99.90
18611;DHT22;9435;52.122;5.502;2023-01-31T05:47:47;5.00;99.90
18611;DHT22;9435;52.122;5.502;2023-01-31T05:50:16;5.00;99.90
18611;DHT22;9435;52.122;5.502;2023-01-31T05:52:49;5.00;99.90
18611;DHT22;9435;52.122;5.502;2023-01-31T05:55:16;5.00;99.90
18611;DHT22;9435;52.122;5.502;2023-01-31T05:57:43;5.00;99.90
18611;DHT22;9435;52.122;5.502;2023-01-31T06:00:11;5.00;99.90
18611;DHT22;9435;52.122;5.502;2023-01-31T06:02:39;5.00;99.90
18611;DHT22;9435;52.122;5.502;2023-01-31T06:05:07;5.10;99.90
18611;DHT22;9435;52.122;5.502;2023-01-31T06:07:35;5.00;99.90
18611;DHT22;9435;52.122;5.502;2023-01-31T06:10:03;5.10;99.90
18611;DHT22;9435;52.122;5.502;2023-01-31T06:12:31;5.00;99.90
18611;DHT22;9435;52.122;5.502;2023-01-31T06:14:58;5.00;99.90
18611;DHT22;9435;52.122;5.502;2023-01-31T06:17:25;5.10;99.90
18611;DHT22;9435;52.122;5.502;2023-01-31T06:19:53;5.10;99.90
18611;DHT22;9435;52.122;5.502;2023-01-31T06:22:21;5.10;99.90
18611;DHT22;9435;52.122;5.502;2023-01-31T06:24:49;5.10;99.90
18611;DHT22;9435;52.122;5.502;2023-01-31T06:27:17;5.10;99.90
18611;DHT22;9435;52.122;5.502;2023-01-31T06:29:44;5.10;99.90
18611;DHT22;9435;52.122;5.502;2023-01-31T06:32:11;5.10;99.90
18611;DHT22;9435;52.122;5.502;2023-01-31T06:34:38;5.20;99.90
18611;DHT22;9435;52.122;5.502;2023-01-31T06:37:07;5.20;99.90
18611;DHT22;9435;52.122;5.502;2023-01-31T06:39:35;5.10;99.90
18611;DHT22;9435;52.122;5.502;2023-01-31T06:42:04;5.10;99.90
18611;DHT22;9435;52.122;5.502;2023-01-31T06:44:31;5.10;99.90
18611;DHT22;9435;52.122;5.502;2023-01-31T06:46:59;5.10;99.90
18611;DHT22;9435;52.122;5.502;2023-01-31T06:49:26;5.10;99.90
18611;DHT22;9435;52.122;5.502;2023-01-31T06:51:53;5.10;99.90
18611;DHT22;9435;52.122;5.502;2023-01-31T06:54:20;5.10;99.90
18611;DHT22;9435;52.122;5.502;2023-01-31T06:56:47;5.10;99.90
18611;DHT22;9435;52.122;5.502;2023-01-31T06:59:15;5.20;99.90
18611;DHT22;9435;52.122;5.502;2023-01-31T07:01:42;5.20;99.90
18611;DHT22;9435;52.122;5.502;2023-01-31T07:04:09;5.20;99.90
18611;DHT22;9435;52.122;5.502;2023-01-31T07:06:36;5.30;99.90
18611;DHT22;9435;52.122;5.502;2023-01-31T07:09:04;5.20;99.90
18611;DHT22;9435;52.122;5.502;2023-01-31T07:11:32;5.20;99.90
18611;DHT22;9435;52.122;5.502;2023-01-31T07:13:59;5.20;99.90
18611;DHT22;9435;52.122;5.502;2023-01-31T07:16:27;5.20;99.90
18611;DHT22;9435;52.122;5.502;2023-01-31T07:18:55;5.30;99.90
18611;DHT22;9435;52.122;5.502;2023-01-31T07:21:22;5.30;99.90
18611;DHT22;9435;52.122;5.502;2023-01-31T07:23:51;5.30;99.90
18611;DHT22;9435;52.122;5.502;2023-01-31T07:26:18;5.30;99.90
18611;DHT22;9435;52.122;5.502;2023-01-31T07:28:45;5.30;99.90
18611;DHT22;9435;52.122;5.502;2023-01-31T07:31:13;5.30;99.90
18611;DHT22;9435;52.122;5.502;2023-01-31T07:33:41;5.30;99.90
18611;DHT22;9435;52.122;5.502;2023-01-31T07:36:11;5.30;99.90
18611;DHT22;9435;52.122;5.502;2023-01-31T07:38:40;5.30;99.90
18611;DHT22;9435;52.122;5.502;2023-01-31T07:41:08;5.40;99.90
18611;DHT22;9435;52.122;5.502;2023-01-31T07:43:36;5.40;99.90
18611;DHT22;9435;52.122;5.502;2023-01-31T07:46:05;5.40;99.90
18611;DHT22;9435;52.122;5.502;2023-01-31T07:48:35;5.40;99.90
18611;DHT22;9435;52.122;5.502;2023-01-31T07:51:03;5.40;99.90
18611;DHT22;9435;52.122;5.502;2023-01-31T07:53:32;5.40;99.90
18611;DHT22;9435;52.122;5.502;2023-01-31T07:56:08;5.50;99.90
18611;DHT22;9435;52.122;5.502;2023-01-31T07:58:36;5.50;99.90
18611;DHT22;9435;52.122;5.502;2023-01-31T08:01:04;5.50;99.90
18611;DHT22;9435;52.122;5.502;2023-01-31T08:03:48;5.50;99.90
18611;DHT22;9435;52.122;5.502;2023-01-31T08:06:17;5.50;99.90
18611;DHT22;9435;52.122;5.502;2023-01-31T08:08:45;5.60;99.90
18611;DHT22;9435;52.122;5.502;2023-01-31T08:11:12;5.60;99.90
18611;DHT22;9435;52.122;5.502;2023-01-31T08:13:39;5.60;99.90
18611;DHT22;9435;52.122;5.502;2023-01-31T08:16:08;5.60;99.90
18611;DHT22;9435;52.122;5.502;2023-01-31T08:18:35;5.60;99.90
18611;DHT22;9435;52.122;5.502;2023-01-31T08:21:02;5.60;99.90
18611;DHT22;9435;52.122;5.502;2023-01-31T08:23:31;5.60;99.90
18611;DHT22;9435;52.122;5.502;2023-01-31T08:25:59;5.50;99.90
18611;DHT22;9435;52.122;5.502;2023-01-31T08:28:27;5.50;99.90
18611;DHT22;9435;52.122;5.502;2023-01-31T08:30:54;5.50;99.90
18611;DHT22;9435;52.122;5.502;2023-01-31T08:33:21;5.60;99.90
18611;DHT22;9435;52.122;5.502;2023-01-31T08:35:48;5.60;99.90
18611;DHT22;9435;52.122;5.502;2023-01-31T08:38:15;5.60;99.90
18611;DHT22;9435;52.122;5.502;2023-01-31T08:40:44;5.60;99.90
18611;DHT22;9435;52.122;5.502;2023-01-31T08:43:11;5.60;99.90
18611;DHT22;9435;52.122;5.502;2023-01-31T08:45:38;5.70;99.90
18611;DHT22;9435;52.122;5.502;2023-01-31T08:48:05;5.70;99.90
18611;DHT22;9435;52.122;5.502;2023-01-31T08:50:33;5.70;99.90
18611;DHT22;9435;52.122;5.502;2023-01-31T08:53:01;5.70;99.90
18611;DHT22;9435;52.122;5.502;2023-01-31T08:55:30;5.80;99.90
18611;DHT22;9435;52.122;5.502;2023-01-31T08:57:58;5.80;99.90
18611;DHT22;9435;52.122;5.502;2023-01-31T09:00:26;5.80;99.90
18611;DHT22;9435;52.122;5.502;2023-01-31T09:02:54;5.80;99.90
18611;DHT22;9435;52.122;5.502;2023-01-31T09:05:22;5.90;99.90
18611;DHT22;9435;52.122;5.502;2023-01-31T09:07:50;5.90;99.90
18611;DHT22;9435;52.122;5.502;2023-01-31T09:10:17;5.90;99.90
18611;DHT22;9435;52.122;5.502;2023-01-31T09:12:44;5.90;99.90
18611;DHT22;9435;52.122;5.502;2023-01-31T09:15:13;6.00;99.90
18611;DHT22;9435;52.122;5.502;2023-01-31T09:17:40;6.00;99.90
18611;DHT22;9435;52.122;5.502;2023-01-31T09:20:09;6.00;99.90
18611;DHT22;9435;52.122;5.502;2023-01-31T09:22:36;6.00;99.90
18611;DHT22;9435;52.122;5.502;2023-01-31T09:25:04;6.00;99.90
18611;DHT22;9435;52.122;5.502;2023-01-31T09:27:31;6.10;99.90
18611;DHT22;9435;52.122;5.502;2023-01-31T09:29:58;6.10;99.90
18611;DHT22;9435;52.122;5.502;2023-01-31T09:32:27;6.10;99.90
18611;DHT22;9435;52.122;5.502;2023-01-31T09:34:54;6.20;99.90
18611;DHT22;9435;52.122;5.502;2023-01-31T09:37:21;6.20;99.90
18611;DHT22;9435;52.122;5.502;2023-01-31T09:39:48;6.20;99.90
18611;DHT22;9435;52.122;5.502;2023-01-31T09:42:20;6.20;99.90
18611;DHT22;9435;52.122;5.502;2023-01-31T09:44:59;6.30;99.90
18611;DHT22;9435;52.122;5.502;2023-01-31T09:47:32;6.30;99.90
18611;DHT22;9435;52.122;5.502;2023-01-31T09:50:03;6.30;99.90
18611;DHT22;9435;52.122;5.502;2023-01-31T09:52:32;6.30;99.90
18611;DHT22;9435;52.122;5.502;2023-01-31T09:54:59;6.30;99.90
18611;DHT22;9435;52.122;5.502;2023-01-31T09:57:39;6.30;99.90
18611;DHT22;9435;52.122;5.502;2023-01-31T10:00:17;6.20;99.90
18611;DHT22;9435;52.122;5.502;2023-01-31T10:05:48;6.30;99.90
18611;DHT22;9435;52.122;5.502;2023-01-31T10:08:21;6.30;99.90
18611;DHT22;9435;52.122;5.502;2023-01-31T10:10:57;6.30;99.90
18611;DHT22;9435;52.122;5.502;2023-01-31T10:13:29;6.30;99.90
18611;DHT22;9435;52.122;5.502;2023-01-31T10:16:04;6.30;99.90
18611;DHT22;9435;52.122;5.502;2023-01-31T10:18:36;6.30;99.90
18611;DHT22;9435;52.122;5.502;2023-01-31T10:21:07;6.30;99.90
18611;DHT22;9435;52.122;5.502;2023-01-31T10:23:40;6.30;99.90
18611;DHT22;9435;52.122;5.502;2023-01-31T10:26:11;6.40;99.90
18611;DHT22;9435;52.122;5.502;2023-01-31T10:28:41;6.40;99.90
18611;DHT22;9435;52.122;5.502;2023-01-31T10:31:25;6.50;99.90
18611;DHT22;9435;52.122;5.502;2023-01-31T10:33:59;6.60;99.90
18611;DHT22;9435;52.122;5.502;2023-01-31T10:36:33;6.60;99.90
18611;DHT22;9435;52.122;5.502;2023-01-31T10:39:06;6.70;99.90
18611;DHT22;9435;52.122;5.502;2023-01-31T10:41:44;6.60;99.90
18611;DHT22;9435;52.122;5.502;2023-01-31T10:44:20;6.70;99.90
18611;DHT22;9435;52.122;5.502;2023-01-31T10:46:51;6.70;99.90
18611;DHT22;9435;52.122;5.502;2023-01-31T10:49:20;6.90;99.90
18611;DHT22;9435;52.122;5.502;2023-01-31T10:52:03;6.90;99.90
18611;DHT22;9435;52.122;5.502;2023-01-31T10:54:46;7.00;99.90
18611;DHT22;9435;52.122;5.502;2023-01-31T10:57:15;7.00;99.90
18611;DHT22;9435;52.122;5.502;2023-01-31T10:59:45;7.00;99.90
18611;DHT22;9435;52.122;5.502;2023-01-31T11:02:18;7.00;99.90
18611;DHT22;9435;52.122;5.502;2023-01-31T11:04:49;6.90;99.90
18611;DHT22;9435;52.122;5.502;2023-01-31T11:07:17;6.90;99.90
18611;DHT22;9435;52.122;5.502;2023-01-31T11:09:47;6.90;99.90
18611;DHT22;9435;52.122;5.502;2023-01-31T11:12:16;6.90;99.90
18611;DHT22;9435;52.122;5.502;2023-01-31T11:14:43;6.90;99.90
18611;DHT22;9435;52.122;5.502;2023-01-31T11:17:15;6.90;99.90
18611;DHT22;9435;52.122;5.502;2023-01-31T11:19:45;6.90;99.90
18611;DHT22;9435;52.122;5.502;2023-01-31T11:22:21;6.90;99.90
18611;DHT22;9435;52.122;5.502;2023-01-31T11:24:50;6.80;99.90
18611;DHT22;9435;52.122;5.502;2023-01-31T11:27:24;6.90;99.90
18611;DHT22;9435;52.122;5.502;2023-01-31T11:29:52;6.90;99.90
18611;DHT22;9435;52.122;5.502;2023-01-31T11:32:24;6.90;99.90
18611;DHT22;9435;52.122;5.502;2023-01-31T11:34:56;6.90;99.90
18611;DHT22;9435;52.122;5.502;2023-01-31T11:37:26;6.90;99.90
18611;DHT22;9435;52.122;5.502;2023-01-31T11:39:55;6.90;99.90
18611;DHT22;9435;52.122;5.502;2023-01-31T11:42:23;6.80;99.90
18611;DHT22;9435;52.122;5.502;2023-01-31T11:44:55;6.90;99.90
18611;DHT22;9435;52.122;5.502;2023-01-31T11:47:27;6.80;99.90
18611;DHT22;9435;52.122;5.502;2023-01-31T11:49:56;6.90;99.90
18611;DHT22;9435;52.122;5.502;2023-01-31T11:52:29;6.90;99.90
18611;DHT22;9435;52.122;5.502;2023-01-31T11:54:59;6.90;99.90
18611;DHT22;9435;52.122;5.502;2023-01-31T11:57:30;6.90;99.90
18611;DHT22;9435;52.122;5.502;2023-01-31T11:59:59;6.90;99.90
18611;DHT22;9435;52.122;5.502;2023-01-31T12:02:33;7.00;99.90
18611;DHT22;9435;52.122;5.502;2023-01-31T12:05:06;7.00;99.90
18611;DHT22;9435;52.122;5.502;2023-01-31T12:07:43;7.00;99.90
18611;DHT22;9435;52.122;5.502;2023-01-31T12:10:44;7.10;99.90
18611;DHT22;9435;52.122;5.502;2023-01-31T12:13:14;7.10;99.90
18611;DHT22;9435;52.122;5.502;2023-01-31T12:15:47;7.10;99.90
18611;DHT22;9435;52.122;5.502;2023-01-31T12:18:28;7.10;99.90
18611;DHT22;9435;52.122;5.502;2023-01-31T12:21:02;7.10;99.90
18611;DHT22;9435;52.122;5.502;2023-01-31T12:23:40;7.10;99.90
18611;DHT22;9435;52.122;5.502;2023-01-31T12:26:14;7.20;99.90
18611;DHT22;9435;52.122;5.502;2023-01-31T12:28:55;7.20;99.90
18611;DHT22;9435;52.122;5.502;2023-01-31T12:31:44;7.20;99.90
18611;DHT22;9435;52.122;5.502;2023-01-31T12:34:30;7.30;99.90
18611;DHT22;9435;52.122;5.502;2023-01-31T12:37:18;7.30;99.90
18611;DHT22;9435;52.122;5.502;2023-01-31T12:40:12;7.30;99.90
18611;DHT22;9435;52.122;5.502;2023-01-31T12:42:51;7.30;99.90
18611;DHT22;9435;52.122;5.502;2023-01-31T12:45:41;7.30;99.90
18611;DHT22;9435;52.122;5.502;2023-01-31T12:48:40;7.30;99.90
18611;DHT22;9435;52.122;5.502;2023-01-31T12:51:18;7.40;99.90
18611;DHT22;9435;52.122;5.502;2023-01-31T12:54:02;7.50;99.90
18611;DHT22;9435;52.122;5.502;2023-01-31T12:56:53;7.50;99.90
18611;DHT22;9435;52.122;5.502;2023-01-31T12:59:38;7.60;99.90
18611;DHT22;9435;52.122;5.502;2023-01-31T13:02:21;7.70;99.90
18611;DHT22;9435;52.122;5.502;2023-01-31T13:04:52;7.70;99.90
18611;DHT22;9435;52.122;5.502;2023-01-31T13:07:25;7.80;99.90
18611;DHT22;9435;52.122;5.502;2023-01-31T13:09:56;7.90;99.90
18611;DHT22;9435;52.122;5.502;2023-01-31T13:12:27;7.90;99.90
18611;DHT22;9435;52.122;5.502;2023-01-31T13:15:00;8.00;99.90
18611;DHT22;9435;52.122;5.502;2023-01-31T13:17:31;8.00;99.90
18611;DHT22;9435;52.122;5.502;2023-01-31T13:20:02;8.00;99.90
18611;DHT22;9435;52.122;5.502;2023-01-31T13:22:38;8.10;99.90
18611;DHT22;9435;52.122;5.502;2023-01-31T13:25:14;8.10;99.90
18611;DHT22;9435;52.122;5.502;2023-01-31T13:27:51;8.10;99.90
18611;DHT22;9435;52.122;5.502;2023-01-31T13:30:34;8.20;99.90
18611;DHT22;9435;52.122;5.502;2023-01-31T13:33:15;8.20;99.90
18611;DHT22;9435;52.122;5.502;2023-01-31T13:35:44;8.20;99.90
18611;DHT22;9435;52.122;5.502;2023-01-31T13:38:16;8.20;99.90
18611;DHT22;9435;52.122;5.502;2023-01-31T13:40:48;8.30;99.90
18611;DHT22;9435;52.122;5.502;2023-01-31T13:43:18;8.40;99.90
18611;DHT22;9435;52.122;5.502;2023-01-31T13:45:50;8.40;99.90
18611;DHT22;9435;52.122;5.502;2023-01-31T13:48:24;8.50;99.90
18611;DHT22;9435;52.122;5.502;2023-01-31T13:50:57;8.50;99.90
18611;DHT22;9435;52.122;5.502;2023-01-31T13:53:27;8.60;99.90
18611;DHT22;9435;52.122;5.502;2023-01-31T13:55:58;8.50;99.90
18611;DHT22;9435;52.122;5.502;2023-01-31T13:58:29;8.60;99.90
18611;DHT22;9435;52.122;5.502;2023-01-31T14:01:04;8.60;99.90
18611;DHT22;9435;52.122;5.502;2023-01-31T14:07:22;8.60;99.90
18611;DHT22;9435;52.122;5.502;2023-01-31T14:10:24;8.60;99.90
18611;DHT22;9435;52.122;5.502;2023-01-31T14:13:26;8.60;99.90
18611;DHT22;9435;52.122;5.502;2023-01-31T14:15:56;8.70;99.90
18611;DHT22;9435;52.122;5.502;2023-01-31T14:18:50;8.70;99.90
18611;DHT22;9435;52.122;5.502;2023-01-31T14:21:42;8.70;99.90
18611;DHT22;9435;52.122;5.502;2023-01-31T14:24:19;8.80;99.90
18611;DHT22;9435;52.122;5.502;2023-01-31T14:26:51;8.70;99.90
18611;DHT22;9435;52.122;5.502;2023-01-31T14:29:20;8.90;99.90
18611;DHT22;9435;52.122;5.502;2023-01-31T14:31:50;8.80;99.90
18611;DHT22;9435;52.122;5.502;2023-01-31T14:34:21;8.80;99.90
18611;DHT22;9435;52.122;5.502;2023-01-31T14:37:00;8.90;99.90
18611;DHT22;9435;52.122;5.502;2023-01-31T14:40:00;9.00;99.90
18611;DHT22;9435;52.122;5.502;2023-01-31T14:46:11;9.00;99.90
18611;DHT22;9435;52.122;5.502;2023-01-31T14:52:16;8.90;99.90
18611;DHT22;9435;52.122;5.502;2023-01-31T14:54:59;8.90;99.90
18611;DHT22;9435;52.122;5.502;2023-01-31T14:57:31;9.00;99.90
18611;DHT22;9435;52.122;5.502;2023-01-31T15:00:02;9.00;99.90
18611;DHT22;9435;52.122;5.502;2023-01-31T15:02:44;8.90;99.90
18611;DHT22;9435;52.122;5.502;2023-01-31T15:05:15;8.90;99.90
18611;DHT22;9435;52.122;5.502;2023-01-31T15:08:08;8.90;99.90
18611;DHT22;9435;52.122;5.502;2023-01-31T15:10:54;8.90;99.90
18611;DHT22;9435;52.122;5.502;2023-01-31T15:13:41;8.90;99.90
18611;DHT22;9435;52.122;5.502;2023-01-31T15:16:16;8.90;99.90
18611;DHT22;9435;52.122;5.502;2023-01-31T15:18:46;8.90;99.90
18611;DHT22;9435;52.122;5.502;2023-01-31T15:21:21;8.80;99.90
18611;DHT22;9435;52.122;5.502;2023-01-31T15:23:51;8.90;99.90
18611;DHT22;9435;52.122;5.502;2023-01-31T15:26:20;8.90;99.90
18611;DHT22;9435;52.122;5.502;2023-01-31T15:28:48;9.00;99.90
18611;DHT22;9435;52.122;5.502;2023-01-31T15:31:19;9.00;99.90
18611;DHT22;9435;52.122;5.502;2023-01-31T15:33:50;8.90;99.90
18611;DHT22;9435;52.122;5.502;2023-01-31T15:36:23;9.00;99.90
18611;DHT22;9435;52.122;5.502;2023-01-31T15:38:55;8.90;99.90
18611;DHT22;9435;52.122;5.502;2023-01-31T15:41:24;8.90;99.90
18611;DHT22;9435;52.122;5.502;2023-01-31T15:43:53;8.90;99.90
18611;DHT22;9435;52.122;5.502;2023-01-31T15:46:25;8.90;99.90
18611;DHT22;9435;52.122;5.502;2023-01-31T15:48:52;8.80;99.90
18611;DHT22;9435;52.122;5.502;2023-01-31T15:51:19;8.80;99.90
18611;DHT22;9435;52.122;5.502;2023-01-31T15:53:47;8.80;99.90
18611;DHT22;9435;52.122;5.502;2023-01-31T15:56:19;8.70;99.90
18611;DHT22;9435;52.122;5.502;2023-01-31T15:58:51;8.70;99.90
18611;DHT22;9435;52.122;5.502;2023-01-31T16:01:19;8.60;99.90
18611;DHT22;9435;52.122;5.502;2023-01-31T16:03:51;8.60;99.90
18611;DHT22;9435;52.122;5.502;2023-01-31T16:06:23;8.50;99.90
18611;DHT22;9435;52.122;5.502;2023-01-31T16:08:53;8.50;99.90
18611;DHT22;9435;52.122;5.502;2023-01-31T16:11:22;8.50;99.90
18611;DHT22;9435;52.122;5.502;2023-01-31T16:13:51;8.50;99.90
18611;DHT22;9435;52.122;5.502;2023-01-31T16:16:20;8.60;99.90
18611;DHT22;9435;52.122;5.502;2023-01-31T16:18:49;8.50;99.90
18611;DHT22;9435;52.122;5.502;2023-01-31T16:21:26;8.50;99.90
18611;DHT22;9435;52.122;5.502;2023-01-31T16:23:58;8.50;99.90
18611;DHT22;9435;52.122;5.502;2023-01-31T16:26:30;8.50;99.90
18611;DHT22;9435;52.122;5.502;2023-01-31T16:29:06;8.50;99.90
18611;DHT22;9435;52.122;5.502;2023-01-31T16:31:34;8.50;99.90
18611;DHT22;9435;52.122;5.502;2023-01-31T16:34:23;8.50;99.90
18611;DHT22;9435;52.122;5.502;2023-01-31T16:36:54;8.30;99.90
18611;DHT22;9435;52.122;5.502;2023-01-31T16:39:29;8.30;99.90
18611;DHT22;9435;52.122;5.502;2023-01-31T16:41:59;8.20;99.90
18611;DHT22;9435;52.122;5.502;2023-01-31T16:44:32;8.10;99.90
18611;DHT22;9435;52.122;5.502;2023-01-31T16:47:00;8.10;99.90
18611;DHT22;9435;52.122;5.502;2023-01-31T16:49:30;8.00;99.90
18611;DHT22;9435;52.122;5.502;2023-01-31T16:52:13;8.00;99.90